sensor_id;sensor_type;location;lat;lon;timestamp;P1;durP1;ratioP1;P2;durP2;ratioP2
75316;SDS011;63913;51.492;10.368;2022-11-18T00:00:48;13.43;;;5.25;;
75316;SDS011;63913;51.492;10.368;2022-11-18T00:03:14;15.23;;;5.80;;
75316;SDS011;63913;51.492;10.368;2022-11-18T00:05:39;12.23;;;5.03;;
75316;SDS011;63913;51.492;10.368;2022-11-18T00:08:05;12.07;;;5.17;;
75316;SDS011;63913;51.492;10.368;2022-11-18T00:10:30;15.18;;;6.18;;
75316;SDS011;63913;51.492;10.368;2022-11-18T00:12:55;14.77;;;6.27;;
75316;SDS011;63913;51.492;10.368;2022-11-18T00:15:40;13.60;;;4.97;;
75316;SDS011;63913;51.492;10.368;2022-11-18T00:18:05;13.50;;;5.37;;
75316;SDS011;63913;51.492;10.368;2022-11-18T00:20:32;13.73;;;5.53;;
75316;SDS011;63913;51.492;10.368;2022-11-18T00:22:57;14.57;;;4.93;;
75316;SDS011;63913;51.492;10.368;2022-11-18T00:25:23;14.63;;;5.07;;
75316;SDS011;63913;51.492;10.368;2022-11-18T00:27:49;13.40;;;5.60;;
75316;SDS011;63913;51.492;10.368;2022-11-18T00:30:14;15.63;;;5.53;;
75316;SDS011;63913;51.492;10.368;2022-11-18T00:32:40;13.85;;;5.22;;
75316;SDS011;63913;51.492;10.368;2022-11-18T00:35:05;12.57;;;4.87;;
75316;SDS011;63913;51.492;10.368;2022-11-18T00:37:32;17.25;;;6.40;;
75316;SDS011;63913;51.492;10.368;2022-11-18T00:39:59;15.68;;;5.90;;
75316;SDS011;63913;51.492;10.368;2022-11-18T00:42:25;15.27;;;5.68;;
75316;SDS011;63913;51.492;10.368;2022-11-18T00:45:09;17.15;;;5.72;;
75316;SDS011;63913;51.492;10.368;2022-11-18T00:47:34;18.05;;;6.43;;
75316;SDS011;63913;51.492;10.368;2022-11-18T00:49:59;17.43;;;6.20;;
75316;SDS011;63913;51.492;10.368;2022-11-18T00:52:25;20.27;;;6.80;;
75316;SDS011;63913;51.492;10.368;2022-11-18T00:54:50;17.23;;;6.17;;
75316;SDS011;63913;51.492;10.368;2022-11-18T00:57:15;19.92;;;6.43;;
75316;SDS011;63913;51.492;10.368;2022-11-18T00:59:40;16.93;;;5.70;;
75316;SDS011;63913;51.492;10.368;2022-11-18T01:02:06;16.57;;;5.67;;
75316;SDS011;63913;51.492;10.368;2022-11-18T01:04:31;18.00;;;5.93;;
75316;SDS011;63913;51.492;10.368;2022-11-18T01:06:56;22.10;;;6.13;;
75316;SDS011;63913;51.492;10.368;2022-11-18T01:09:22;15.67;;;5.90;;
75316;SDS011;63913;51.492;10.368;2022-11-18T01:11:47;17.67;;;6.50;;
75316;SDS011;63913;51.492;10.368;2022-11-18T01:14:31;18.85;;;5.95;;
75316;SDS011;63913;51.492;10.368;2022-11-18T01:16:56;15.98;;;5.45;;
75316;SDS011;63913;51.492;10.368;2022-11-18T01:19:22;19.08;;;6.30;;
75316;SDS011;63913;51.492;10.368;2022-11-18T01:21:48;14.32;;;5.43;;
75316;SDS011;63913;51.492;10.368;2022-11-18T01:24:13;16.38;;;6.28;;
75316;SDS011;63913;51.492;10.368;2022-11-18T01:26:39;17.08;;;6.18;;
75316;SDS011;63913;51.492;10.368;2022-11-18T01:29:04;15.02;;;5.68;;
75316;SDS011;63913;51.492;10.368;2022-11-18T01:31:30;17.98;;;6.35;;
75316;SDS011;63913;51.492;10.368;2022-11-18T01:33:55;13.97;;;5.70;;
75316;SDS011;63913;51.492;10.368;2022-11-18T01:36:21;16.30;;;6.27;;
75316;SDS011;63913;51.492;10.368;2022-11-18T01:38:49;18.10;;;6.18;;
75316;SDS011;63913;51.492;10.368;2022-11-18T01:41:15;18.98;;;6.13;;
75316;SDS011;63913;51.492;10.368;2022-11-18T01:43:48;15.45;;;6.18;;
75316;SDS011;63913;51.492;10.368;2022-11-18T01:46:17;17.83;;;6.43;;
75316;SDS011;63913;51.492;10.368;2022-11-18T01:48:44;16.63;;;5.97;;
75316;SDS011;63913;51.492;10.368;2022-11-18T01:51:14;18.05;;;6.03;;
75316;SDS011;63913;51.492;10.368;2022-11-18T01:53:42;17.17;;;6.53;;
75316;SDS011;63913;51.492;10.368;2022-11-18T01:56:22;16.83;;;6.05;;
75316;SDS011;63913;51.492;10.368;2022-11-18T01:58:55;18.30;;;6.10;;
75316;SDS011;63913;51.492;10.368;2022-11-18T02:01:23;18.05;;;6.47;;
75316;SDS011;63913;51.492;10.368;2022-11-18T02:03:50;19.92;;;6.18;;
75316;SDS011;63913;51.492;10.368;2022-11-18T02:06:17;16.80;;;6.65;;
75316;SDS011;63913;51.492;10.368;2022-11-18T02:08:43;17.85;;;6.38;;
75316;SDS011;63913;51.492;10.368;2022-11-18T02:11:10;17.52;;;5.60;;
75316;SDS011;63913;51.492;10.368;2022-11-18T02:14:07;16.00;;;5.95;;
75316;SDS011;63913;51.492;10.368;2022-11-18T02:16:46;13.52;;;5.30;;
75316;SDS011;63913;51.492;10.368;2022-11-18T02:19:24;17.25;;;6.75;;
75316;SDS011;63913;51.492;10.368;2022-11-18T02:22:10;11.70;;;4.95;;
75316;SDS011;63913;51.492;10.368;2022-11-18T02:27:50;13.48;;;5.22;;
75316;SDS011;63913;51.492;10.368;2022-11-18T02:30:27;11.02;;;4.45;;
75316;SDS011;63913;51.492;10.368;2022-11-18T02:33:06;9.70;;;4.45;;
75316;SDS011;63913;51.492;10.368;2022-11-18T02:35:38;12.13;;;4.15;;
75316;SDS011;63913;51.492;10.368;2022-11-18T02:41:07;8.80;;;4.22;;
75316;SDS011;63913;51.492;10.368;2022-11-18T02:43:37;8.88;;;3.97;;
75316;SDS011;63913;51.492;10.368;2022-11-18T02:46:08;8.63;;;3.75;;
75316;SDS011;63913;51.492;10.368;2022-11-18T02:48:39;10.10;;;4.07;;
75316;SDS011;63913;51.492;10.368;2022-11-18T02:51:09;9.18;;;4.15;;
75316;SDS011;63913;51.492;10.368;2022-11-18T02:53:37;9.60;;;3.78;;
75316;SDS011;63913;51.492;10.368;2022-11-18T02:56:04;11.18;;;4.57;;
75316;SDS011;63913;51.492;10.368;2022-11-18T02:58:31;11.15;;;4.35;;
75316;SDS011;63913;51.492;10.368;2022-11-18T03:00:58;13.03;;;5.03;;
75316;SDS011;63913;51.492;10.368;2022-11-18T03:03:27;13.45;;;5.47;;
75316;SDS011;63913;51.492;10.368;2022-11-18T03:05:58;13.55;;;4.40;;
75316;SDS011;63913;51.492;10.368;2022-11-18T03:08:36;10.88;;;4.88;;
75316;SDS011;63913;51.492;10.368;2022-11-18T03:11:10;13.70;;;4.90;;
75316;SDS011;63913;51.492;10.368;2022-11-18T03:16:35;12.25;;;4.70;;
75316;SDS011;63913;51.492;10.368;2022-11-18T03:19:08;13.50;;;4.93;;
75316;SDS011;63913;51.492;10.368;2022-11-18T03:21:42;13.82;;;4.93;;
75316;SDS011;63913;51.492;10.368;2022-11-18T03:24:20;9.88;;;4.15;;
75316;SDS011;63913;51.492;10.368;2022-11-18T03:26:58;11.43;;;4.85;;
75316;SDS011;63913;51.492;10.368;2022-11-18T03:29:33;13.30;;;5.10;;
75316;SDS011;63913;51.492;10.368;2022-11-18T03:32:09;10.88;;;4.10;;
75316;SDS011;63913;51.492;10.368;2022-11-18T03:34:43;11.32;;;4.68;;
75316;SDS011;63913;51.492;10.368;2022-11-18T03:37:11;10.60;;;5.60;;
75316;SDS011;63913;51.492;10.368;2022-11-18T03:39:44;12.32;;;4.70;;
75316;SDS011;63913;51.492;10.368;2022-11-18T03:44:46;13.68;;;5.18;;
75316;SDS011;63913;51.492;10.368;2022-11-18T03:47:18;13.32;;;4.75;;
75316;SDS011;63913;51.492;10.368;2022-11-18T03:49:49;12.27;;;4.80;;
75316;SDS011;63913;51.492;10.368;2022-11-18T03:52:21;13.77;;;5.03;;
75316;SDS011;63913;51.492;10.368;2022-11-18T03:54:50;12.65;;;5.05;;
75316;SDS011;63913;51.492;10.368;2022-11-18T03:57:25;12.32;;;4.65;;
75316;SDS011;63913;51.492;10.368;2022-11-18T04:00:08;12.05;;;4.65;;
75316;SDS011;63913;51.492;10.368;2022-11-18T04:02:35;13.43;;;4.88;;
75316;SDS011;63913;51.492;10.368;2022-11-18T04:05:02;8.45;;;4.50;;
75316;SDS011;63913;51.492;10.368;2022-11-18T04:07:31;9.07;;;3.97;;
75316;SDS011;63913;51.492;10.368;2022-11-18T04:09:59;10.85;;;4.43;;
75316;SDS011;63913;51.492;10.368;2022-11-18T04:12:37;11.82;;;4.47;;
75316;SDS011;63913;51.492;10.368;2022-11-18T04:15:08;12.65;;;4.68;;
75316;SDS011;63913;51.492;10.368;2022-11-18T04:17:33;10.07;;;4.82;;
75316;SDS011;63913;51.492;10.368;2022-11-18T04:19:59;9.95;;;4.65;;
75316;SDS011;63913;51.492;10.368;2022-11-18T04:22:24;10.57;;;4.10;;
75316;SDS011;63913;51.492;10.368;2022-11-18T04:24:49;8.80;;;4.37;;
75316;SDS011;63913;51.492;10.368;2022-11-18T04:27:15;8.60;;;3.80;;
75316;SDS011;63913;51.492;10.368;2022-11-18T04:29:40;9.77;;;4.27;;
75316;SDS011;63913;51.492;10.368;2022-11-18T04:32:05;9.07;;;3.83;;
75316;SDS011;63913;51.492;10.368;2022-11-18T04:34:31;8.52;;;4.35;;
75316;SDS011;63913;51.492;10.368;2022-11-18T04:36:56;11.07;;;3.80;;
75316;SDS011;63913;51.492;10.368;2022-11-18T04:39:22;8.07;;;3.40;;
75316;SDS011;63913;51.492;10.368;2022-11-18T04:41:48;10.57;;;4.03;;
75316;SDS011;63913;51.492;10.368;2022-11-18T04:44:25;8.73;;;4.30;;
75316;SDS011;63913;51.492;10.368;2022-11-18T04:46:53;9.13;;;4.05;;
75316;SDS011;63913;51.492;10.368;2022-11-18T04:49:20;9.00;;;3.90;;
75316;SDS011;63913;51.492;10.368;2022-11-18T04:51:45;7.90;;;3.75;;
75316;SDS011;63913;51.492;10.368;2022-11-18T04:54:12;7.80;;;3.60;;
75316;SDS011;63913;51.492;10.368;2022-11-18T04:56:38;8.65;;;3.72;;
75316;SDS011;63913;51.492;10.368;2022-11-18T04:59:04;9.50;;;3.90;;
75316;SDS011;63913;51.492;10.368;2022-11-18T05:01:30;11.48;;;4.60;;
75316;SDS011;63913;51.492;10.368;2022-11-18T05:03:56;7.75;;;4.20;;
75316;SDS011;63913;51.492;10.368;2022-11-18T05:06:22;11.73;;;4.57;;
75316;SDS011;63913;51.492;10.368;2022-11-18T05:08:47;9.85;;;4.13;;
75316;SDS011;63913;51.492;10.368;2022-11-18T05:11:13;10.52;;;4.32;;
75316;SDS011;63913;51.492;10.368;2022-11-18T05:13:57;12.63;;;4.70;;
75316;SDS011;63913;51.492;10.368;2022-11-18T05:16:22;10.35;;;4.65;;
75316;SDS011;63913;51.492;10.368;2022-11-18T05:18:48;12.83;;;5.60;;
75316;SDS011;63913;51.492;10.368;2022-11-18T05:21:13;14.67;;;6.27;;
75316;SDS011;63913;51.492;10.368;2022-11-18T05:23:38;12.23;;;4.85;;
75316;SDS011;63913;51.492;10.368;2022-11-18T05:26:04;10.37;;;4.93;;
75316;SDS011;63913;51.492;10.368;2022-11-18T05:28:31;10.52;;;4.78;;
75316;SDS011;63913;51.492;10.368;2022-11-18T05:30:56;8.93;;;4.65;;
75316;SDS011;63913;51.492;10.368;2022-11-18T05:33:22;13.37;;;5.00;;
75316;SDS011;63913;51.492;10.368;2022-11-18T05:35:47;13.10;;;4.70;;
75316;SDS011;63913;51.492;10.368;2022-11-18T05:38:12;11.73;;;5.40;;
75316;SDS011;63913;51.492;10.368;2022-11-18T05:40:37;8.83;;;3.80;;
75316;SDS011;63913;51.492;10.368;2022-11-18T05:43:03;9.25;;;3.88;;
75316;SDS011;63913;51.492;10.368;2022-11-18T05:45:38;9.82;;;4.57;;
75316;SDS011;63913;51.492;10.368;2022-11-18T05:48:04;10.98;;;4.80;;
75316;SDS011;63913;51.492;10.368;2022-11-18T05:50:31;7.32;;;3.33;;
75316;SDS011;63913;51.492;10.368;2022-11-18T05:52:58;5.70;;;3.38;;
75316;SDS011;63913;51.492;10.368;2022-11-18T05:55:24;14.25;;;4.88;;
75316;SDS011;63913;51.492;10.368;2022-11-18T05:57:53;9.73;;;4.68;;
75316;SDS011;63913;51.492;10.368;2022-11-18T06:00:18;8.20;;;4.03;;
75316;SDS011;63913;51.492;10.368;2022-11-18T06:02:44;12.88;;;4.35;;
75316;SDS011;63913;51.492;10.368;2022-11-18T06:05:12;10.55;;;3.88;;
75316;SDS011;63913;51.492;10.368;2022-11-18T06:07:40;11.05;;;4.93;;
75316;SDS011;63913;51.492;10.368;2022-11-18T06:10:07;11.02;;;4.55;;
75316;SDS011;63913;51.492;10.368;2022-11-18T06:12:37;7.90;;;3.95;;
75316;SDS011;63913;51.492;10.368;2022-11-18T06:15:07;11.90;;;4.82;;
75316;SDS011;63913;51.492;10.368;2022-11-18T06:17:39;12.10;;;4.78;;
75316;SDS011;63913;51.492;10.368;2022-11-18T06:20:18;10.48;;;4.72;;
75316;SDS011;63913;51.492;10.368;2022-11-18T06:22:45;10.52;;;4.72;;
75316;SDS011;63913;51.492;10.368;2022-11-18T06:25:12;11.98;;;5.05;;
75316;SDS011;63913;51.492;10.368;2022-11-18T06:27:38;9.95;;;4.80;;
75316;SDS011;63913;51.492;10.368;2022-11-18T06:30:03;10.60;;;4.70;;
75316;SDS011;63913;51.492;10.368;2022-11-18T06:32:29;9.95;;;4.10;;
75316;SDS011;63913;51.492;10.368;2022-11-18T06:34:54;9.23;;;4.50;;
75316;SDS011;63913;51.492;10.368;2022-11-18T06:37:19;10.30;;;4.90;;
75316;SDS011;63913;51.492;10.368;2022-11-18T06:39:45;14.30;;;4.97;;
75316;SDS011;63913;51.492;10.368;2022-11-18T06:42:10;11.88;;;4.88;;
75316;SDS011;63913;51.492;10.368;2022-11-18T06:44:56;11.85;;;5.20;;
75316;SDS011;63913;51.492;10.368;2022-11-18T06:47:21;12.33;;;4.53;;
75316;SDS011;63913;51.492;10.368;2022-11-18T06:49:46;12.63;;;5.03;;
75316;SDS011;63913;51.492;10.368;2022-11-18T06:52:11;11.97;;;5.23;;
75316;SDS011;63913;51.492;10.368;2022-11-18T06:54:37;12.63;;;4.77;;
75316;SDS011;63913;51.492;10.368;2022-11-18T06:57:02;12.00;;;4.97;;
75316;SDS011;63913;51.492;10.368;2022-11-18T06:59:27;12.93;;;4.70;;
75316;SDS011;63913;51.492;10.368;2022-11-18T07:01:53;14.83;;;5.73;;
75316;SDS011;63913;51.492;10.368;2022-11-18T07:04:18;11.97;;;5.20;;
75316;SDS011;63913;51.492;10.368;2022-11-18T07:06:43;10.52;;;5.20;;
75316;SDS011;63913;51.492;10.368;2022-11-18T07:09:09;9.93;;;5.03;;
75316;SDS011;63913;51.492;10.368;2022-11-18T07:11:34;10.65;;;5.30;;
75316;SDS011;63913;51.492;10.368;2022-11-18T07:14:02;10.45;;;4.65;;
75316;SDS011;63913;51.492;10.368;2022-11-18T07:16:27;11.73;;;4.78;;
75316;SDS011;63913;51.492;10.368;2022-11-18T07:18:53;11.80;;;4.78;;
75316;SDS011;63913;51.492;10.368;2022-11-18T07:21:24;12.68;;;5.00;;
75316;SDS011;63913;51.492;10.368;2022-11-18T07:23:51;12.50;;;4.88;;
75316;SDS011;63913;51.492;10.368;2022-11-18T07:26:17;10.02;;;3.88;;
75316;SDS011;63913;51.492;10.368;2022-11-18T07:28:43;11.18;;;4.22;;
75316;SDS011;63913;51.492;10.368;2022-11-18T07:31:09;10.23;;;4.13;;
75316;SDS011;63913;51.492;10.368;2022-11-18T07:33:37;10.82;;;3.97;;
75316;SDS011;63913;51.492;10.368;2022-11-18T07:36:04;9.13;;;4.15;;
75316;SDS011;63913;51.492;10.368;2022-11-18T07:38:30;9.20;;;3.75;;
75316;SDS011;63913;51.492;10.368;2022-11-18T07:41:17;7.97;;;3.90;;
75316;SDS011;63913;51.492;10.368;2022-11-18T07:43:43;7.90;;;3.88;;
75316;SDS011;63913;51.492;10.368;2022-11-18T07:48:37;10.85;;;4.10;;
75316;SDS011;63913;51.492;10.368;2022-11-18T07:51:02;8.57;;;3.92;;
75316;SDS011;63913;51.492;10.368;2022-11-18T07:53:32;8.60;;;3.55;;
75316;SDS011;63913;51.492;10.368;2022-11-18T07:55:58;7.38;;;3.28;;
75316;SDS011;63913;51.492;10.368;2022-11-18T07:58:23;8.63;;;3.08;;
75316;SDS011;63913;51.492;10.368;2022-11-18T08:00:49;8.82;;;3.63;;
75316;SDS011;63913;51.492;10.368;2022-11-18T08:03:14;7.53;;;2.90;;
75316;SDS011;63913;51.492;10.368;2022-11-18T08:05:39;7.00;;;3.20;;
75316;SDS011;63913;51.492;10.368;2022-11-18T08:08:05;6.73;;;3.23;;
75316;SDS011;63913;51.492;10.368;2022-11-18T08:10:30;7.37;;;2.87;;
75316;SDS011;63913;51.492;10.368;2022-11-18T08:12:55;8.00;;;3.55;;
75316;SDS011;63913;51.492;10.368;2022-11-18T08:15:21;7.47;;;3.50;;
75316;SDS011;63913;51.492;10.368;2022-11-18T08:17:47;8.50;;;3.53;;
75316;SDS011;63913;51.492;10.368;2022-11-18T08:20:13;8.20;;;3.85;;
75316;SDS011;63913;51.492;10.368;2022-11-18T08:22:38;8.32;;;3.88;;
75316;SDS011;63913;51.492;10.368;2022-11-18T08:25:04;8.10;;;3.35;;
75316;SDS011;63913;51.492;10.368;2022-11-18T08:27:30;9.98;;;4.32;;
75316;SDS011;63913;51.492;10.368;2022-11-18T08:29:55;11.10;;;3.78;;
75316;SDS011;63913;51.492;10.368;2022-11-18T08:32:21;8.53;;;3.90;;
75316;SDS011;63913;51.492;10.368;2022-11-18T08:34:46;11.63;;;4.63;;
75316;SDS011;63913;51.492;10.368;2022-11-18T08:37:12;11.70;;;5.27;;
75316;SDS011;63913;51.492;10.368;2022-11-18T08:39:37;10.95;;;3.95;;
75316;SDS011;63913;51.492;10.368;2022-11-18T08:42:02;10.80;;;4.50;;
75316;SDS011;63913;51.492;10.368;2022-11-18T08:44:28;8.18;;;3.70;;
75316;SDS011;63913;51.492;10.368;2022-11-18T08:46:57;8.88;;;4.03;;
75316;SDS011;63913;51.492;10.368;2022-11-18T08:49:22;8.00;;;3.28;;
75316;SDS011;63913;51.492;10.368;2022-11-18T08:51:48;8.00;;;3.77;;
75316;SDS011;63913;51.492;10.368;2022-11-18T08:54:13;7.60;;;3.63;;
75316;SDS011;63913;51.492;10.368;2022-11-18T08:56:38;6.87;;;3.53;;
75316;SDS011;63913;51.492;10.368;2022-11-18T08:59:04;8.65;;;3.70;;
75316;SDS011;63913;51.492;10.368;2022-11-18T09:01:29;9.77;;;3.58;;
75316;SDS011;63913;51.492;10.368;2022-11-18T09:03:55;10.57;;;3.80;;
75316;SDS011;63913;51.492;10.368;2022-11-18T09:06:21;8.30;;;3.55;;
75316;SDS011;63913;51.492;10.368;2022-11-18T09:08:51;7.15;;;3.00;;
75316;SDS011;63913;51.492;10.368;2022-11-18T09:11:18;14.35;;;6.65;;
75316;SDS011;63913;51.492;10.368;2022-11-18T09:13:45;10.40;;;3.78;;
75316;SDS011;63913;51.492;10.368;2022-11-18T09:16:11;7.00;;;3.42;;
75316;SDS011;63913;51.492;10.368;2022-11-18T09:18:37;9.23;;;3.90;;
75316;SDS011;63913;51.492;10.368;2022-11-18T09:21:03;8.68;;;3.53;;
75316;SDS011;63913;51.492;10.368;2022-11-18T09:23:31;7.00;;;3.40;;
75316;SDS011;63913;51.492;10.368;2022-11-18T09:25:59;6.50;;;3.28;;
75316;SDS011;63913;51.492;10.368;2022-11-18T09:28:25;6.70;;;3.00;;
75316;SDS011;63913;51.492;10.368;2022-11-18T09:30:51;7.15;;;3.90;;
75316;SDS011;63913;51.492;10.368;2022-11-18T09:33:16;10.03;;;4.33;;
75316;SDS011;63913;51.492;10.368;2022-11-18T09:35:42;7.27;;;4.13;;
75316;SDS011;63913;51.492;10.368;2022-11-18T09:38:07;6.88;;;3.67;;
75316;SDS011;63913;51.492;10.368;2022-11-18T09:40:33;5.65;;;3.20;;
75316;SDS011;63913;51.492;10.368;2022-11-18T09:43:11;6.20;;;3.42;;
75316;SDS011;63913;51.492;10.368;2022-11-18T09:45:44;7.15;;;3.38;;
75316;SDS011;63913;51.492;10.368;2022-11-18T09:48:18;8.65;;;3.35;;
75316;SDS011;63913;51.492;10.368;2022-11-18T09:51:05;6.93;;;3.10;;
75316;SDS011;63913;51.492;10.368;2022-11-18T09:53:33;7.53;;;3.63;;
75316;SDS011;63913;51.492;10.368;2022-11-18T09:55:59;7.72;;;3.53;;
75316;SDS011;63913;51.492;10.368;2022-11-18T10:00:51;9.23;;;4.07;;
75316;SDS011;63913;51.492;10.368;2022-11-18T10:03:30;11.20;;;4.83;;
75316;SDS011;63913;51.492;10.368;2022-11-18T10:06:12;9.48;;;4.88;;
75316;SDS011;63913;51.492;10.368;2022-11-18T10:12:55;8.60;;;3.97;;
75316;SDS011;63913;51.492;10.368;2022-11-18T10:17:28;9.57;;;4.38;;
75316;SDS011;63913;51.492;10.368;2022-11-18T10:22:50;8.27;;;4.00;;
75316;SDS011;63913;51.492;10.368;2022-11-18T10:25:20;7.30;;;3.65;;
75316;SDS011;63913;51.492;10.368;2022-11-18T10:27:46;7.40;;;3.00;;
75316;SDS011;63913;51.492;10.368;2022-11-18T10:30:17;9.32;;;4.20;;
75316;SDS011;63913;51.492;10.368;2022-11-18T10:35:32;8.50;;;3.80;;
75316;SDS011;63913;51.492;10.368;2022-11-18T10:38:03;6.75;;;3.35;;
75316;SDS011;63913;51.492;10.368;2022-11-18T10:40:31;8.27;;;3.92;;
75316;SDS011;63913;51.492;10.368;2022-11-18T10:42:58;10.43;;;4.90;;
75316;SDS011;63913;51.492;10.368;2022-11-18T10:45:25;8.13;;;3.35;;
75316;SDS011;63913;51.492;10.368;2022-11-18T10:50:29;11.52;;;4.40;;
75316;SDS011;63913;51.492;10.368;2022-11-18T10:52:55;10.15;;;3.60;;
75316;SDS011;63913;51.492;10.368;2022-11-18T10:55:29;7.70;;;4.20;;
75316;SDS011;63913;51.492;10.368;2022-11-18T10:57:56;13.38;;;4.30;;
75316;SDS011;63913;51.492;10.368;2022-11-18T11:00:42;11.77;;;4.45;;
75316;SDS011;63913;51.492;10.368;2022-11-18T11:05:45;10.00;;;4.20;;
75316;SDS011;63913;51.492;10.368;2022-11-18T11:08:21;10.43;;;4.13;;
75316;SDS011;63913;51.492;10.368;2022-11-18T11:10:57;9.73;;;4.18;;
75316;SDS011;63913;51.492;10.368;2022-11-18T11:13:24;11.57;;;5.10;;
75316;SDS011;63913;51.492;10.368;2022-11-18T11:15:52;8.35;;;4.03;;
75316;SDS011;63913;51.492;10.368;2022-11-18T11:18:21;8.57;;;4.40;;
75316;SDS011;63913;51.492;10.368;2022-11-18T11:21:11;8.23;;;3.80;;
75316;SDS011;63913;51.492;10.368;2022-11-18T11:23:44;12.88;;;5.35;;
75316;SDS011;63913;51.492;10.368;2022-11-18T11:28:57;10.55;;;4.07;;
75316;SDS011;63913;51.492;10.368;2022-11-18T11:31:40;13.65;;;4.18;;
75316;SDS011;63913;51.492;10.368;2022-11-18T11:34:43;10.20;;;4.72;;
75316;SDS011;63913;51.492;10.368;2022-11-18T11:40:02;11.50;;;3.90;;
75316;SDS011;63913;51.492;10.368;2022-11-18T12:04:13;10.60;;;3.97;;
75316;SDS011;63913;51.492;10.368;2022-11-18T12:06:52;7.40;;;3.95;;
75316;SDS011;63913;51.492;10.368;2022-11-18T12:09:35;11.48;;;5.05;;
75316;SDS011;63913;51.492;10.368;2022-11-18T12:17:44;8.32;;;3.78;;
75316;SDS011;63913;51.492;10.368;2022-11-18T12:20:35;7.05;;;3.28;;
75316;SDS011;63913;51.492;10.368;2022-11-18T12:28:27;5.93;;;2.72;;
75316;SDS011;63913;51.492;10.368;2022-11-18T12:36:07;6.93;;;3.13;;
75316;SDS011;63913;51.492;10.368;2022-11-18T12:38:33;4.72;;;2.72;;
75316;SDS011;63913;51.492;10.368;2022-11-18T12:40:58;7.83;;;3.13;;
75316;SDS011;63913;51.492;10.368;2022-11-18T12:51:59;6.10;;;2.78;;
75316;SDS011;63913;51.492;10.368;2022-11-18T12:57:28;4.57;;;2.35;;
75316;SDS011;63913;51.492;10.368;2022-11-18T12:59:55;5.72;;;2.30;;
75316;SDS011;63913;51.492;10.368;2022-11-18T13:07:37;5.57;;;2.25;;
75316;SDS011;63913;51.492;10.368;2022-11-18T13:10:26;5.70;;;2.28;;
75316;SDS011;63913;51.492;10.368;2022-11-18T13:12:55;5.85;;;2.47;;
75316;SDS011;63913;51.492;10.368;2022-11-18T13:15:21;5.13;;;2.47;;
75316;SDS011;63913;51.492;10.368;2022-11-18T13:18:19;4.88;;;2.20;;
75316;SDS011;63913;51.492;10.368;2022-11-18T13:20:55;7.53;;;2.92;;
75316;SDS011;63913;51.492;10.368;2022-11-18T13:23:25;5.45;;;2.72;;
75316;SDS011;63913;51.492;10.368;2022-11-18T13:26:13;5.95;;;3.00;;
75316;SDS011;63913;51.492;10.368;2022-11-18T13:29:00;6.35;;;2.72;;
75316;SDS011;63913;51.492;10.368;2022-11-18T13:34:02;5.18;;;2.28;;
75316;SDS011;63913;51.492;10.368;2022-11-18T13:36:44;4.57;;;2.05;;
75316;SDS011;63913;51.492;10.368;2022-11-18T13:39:11;4.60;;;1.85;;
75316;SDS011;63913;51.492;10.368;2022-11-18T13:41:43;6.32;;;2.08;;
75316;SDS011;63913;51.492;10.368;2022-11-18T13:44:11;6.20;;;2.33;;
75316;SDS011;63913;51.492;10.368;2022-11-18T13:46:39;4.32;;;2.00;;
75316;SDS011;63913;51.492;10.368;2022-11-18T13:49:09;3.78;;;1.80;;
75316;SDS011;63913;51.492;10.368;2022-11-18T13:51:41;4.18;;;1.80;;
75316;SDS011;63913;51.492;10.368;2022-11-18T13:54:09;4.45;;;2.10;;
75316;SDS011;63913;51.492;10.368;2022-11-18T13:56:37;4.93;;;1.85;;
75316;SDS011;63913;51.492;10.368;2022-11-18T13:59:04;4.60;;;1.73;;
75316;SDS011;63913;51.492;10.368;2022-11-18T14:01:33;3.35;;;1.63;;
75316;SDS011;63913;51.492;10.368;2022-11-18T14:04:02;4.72;;;1.60;;
75316;SDS011;63913;51.492;10.368;2022-11-18T14:06:36;3.22;;;1.63;;
75316;SDS011;63913;51.492;10.368;2022-11-18T14:11:36;3.95;;;2.10;;
75316;SDS011;63913;51.492;10.368;2022-11-18T14:14:03;3.97;;;2.10;;
75316;SDS011;63913;51.492;10.368;2022-11-18T14:16:31;4.13;;;1.70;;
75316;SDS011;63913;51.492;10.368;2022-11-18T14:18:59;4.68;;;1.83;;
75316;SDS011;63913;51.492;10.368;2022-11-18T14:21:25;6.95;;;2.17;;
75316;SDS011;63913;51.492;10.368;2022-11-18T14:23:52;4.20;;;1.73;;
75316;SDS011;63913;51.492;10.368;2022-11-18T14:26:31;5.90;;;2.28;;
75316;SDS011;63913;51.492;10.368;2022-11-18T14:28:59;4.53;;;1.83;;
75316;SDS011;63913;51.492;10.368;2022-11-18T14:31:27;3.92;;;1.90;;
75316;SDS011;63913;51.492;10.368;2022-11-18T14:36:38;3.83;;;1.52;;
75316;SDS011;63913;51.492;10.368;2022-11-18T14:39:11;5.87;;;2.30;;
75316;SDS011;63913;51.492;10.368;2022-11-18T14:41:45;4.53;;;2.40;;
75316;SDS011;63913;51.492;10.368;2022-11-18T14:44:11;4.37;;;2.17;;
75316;SDS011;63913;51.492;10.368;2022-11-18T14:46:40;4.30;;;1.90;;
75316;SDS011;63913;51.492;10.368;2022-11-18T14:49:15;3.85;;;2.03;;
75316;SDS011;63913;51.492;10.368;2022-11-18T14:51:42;4.05;;;1.75;;
75316;SDS011;63913;51.492;10.368;2022-11-18T14:54:12;3.22;;;1.85;;
75316;SDS011;63913;51.492;10.368;2022-11-18T14:56:39;4.47;;;1.98;;
75316;SDS011;63913;51.492;10.368;2022-11-18T14:59:04;3.35;;;1.80;;
75316;SDS011;63913;51.492;10.368;2022-11-18T15:01:29;4.13;;;2.22;;
75316;SDS011;63913;51.492;10.368;2022-11-18T15:03:55;3.50;;;1.87;;
75316;SDS011;63913;51.492;10.368;2022-11-18T15:06:20;8.73;;;3.20;;
75316;SDS011;63913;51.492;10.368;2022-11-18T15:10:43;5.68;;;2.30;;
75316;SDS011;63913;51.492;10.368;2022-11-18T15:13:09;6.40;;;2.60;;
75316;SDS011;63913;51.492;10.368;2022-11-18T15:15:34;8.10;;;2.20;;
75316;SDS011;63913;51.492;10.368;2022-11-18T15:17:59;5.38;;;2.50;;
75316;SDS011;63913;51.492;10.368;2022-11-18T15:20:25;5.73;;;3.17;;
75316;SDS011;63913;51.492;10.368;2022-11-18T15:22:50;4.55;;;2.38;;
75316;SDS011;63913;51.492;10.368;2022-11-18T15:25:15;4.43;;;2.33;;
75316;SDS011;63913;51.492;10.368;2022-11-18T15:27:41;5.77;;;2.33;;
75316;SDS011;63913;51.492;10.368;2022-11-18T15:30:06;6.07;;;2.73;;
75316;SDS011;63913;51.492;10.368;2022-11-18T15:32:32;4.20;;;2.15;;
75316;SDS011;63913;51.492;10.368;2022-11-18T15:34:57;6.40;;;2.28;;
75316;SDS011;63913;51.492;10.368;2022-11-18T15:37:22;5.40;;;2.60;;
75316;SDS011;63913;51.492;10.368;2022-11-18T15:39:48;8.43;;;3.08;;
75316;SDS011;63913;51.492;10.368;2022-11-18T15:42:14;5.15;;;2.60;;
75316;SDS011;63913;51.492;10.368;2022-11-18T15:44:41;6.82;;;2.83;;
75316;SDS011;63913;51.492;10.368;2022-11-18T15:47:07;5.07;;;2.55;;
75316;SDS011;63913;51.492;10.368;2022-11-18T15:49:32;6.93;;;2.90;;
75316;SDS011;63913;51.492;10.368;2022-11-18T15:51:57;5.77;;;2.97;;
75316;SDS011;63913;51.492;10.368;2022-11-18T15:54:23;4.88;;;2.42;;
75316;SDS011;63913;51.492;10.368;2022-11-18T15:56:48;3.75;;;1.88;;
75316;SDS011;63913;51.492;10.368;2022-11-18T15:59:14;5.30;;;1.87;;
75316;SDS011;63913;51.492;10.368;2022-11-18T16:01:41;5.15;;;2.28;;
75316;SDS011;63913;51.492;10.368;2022-11-18T16:04:09;4.65;;;2.00;;
75316;SDS011;63913;51.492;10.368;2022-11-18T16:06:35;4.35;;;2.15;;
75316;SDS011;63913;51.492;10.368;2022-11-18T16:09:02;5.43;;;2.78;;
75316;SDS011;63913;51.492;10.368;2022-11-18T16:11:29;5.40;;;2.20;;
75316;SDS011;63913;51.492;10.368;2022-11-18T16:14:14;6.35;;;2.58;;
75316;SDS011;63913;51.492;10.368;2022-11-18T16:16:41;4.75;;;2.65;;
75316;SDS011;63913;51.492;10.368;2022-11-18T16:19:11;7.10;;;2.75;;
75316;SDS011;63913;51.492;10.368;2022-11-18T16:21:42;6.93;;;2.83;;